sensor_id;sensor_type;location;lat;lon;timestamp;temperature;humidity
50162;DHT22;36061;48.116;11.612;2023-07-22T00:01:30;16.90;99.90
50162;DHT22;36061;48.116;11.612;2023-07-22T00:03:57;16.90;99.90
50162;DHT22;36061;48.116;11.612;2023-07-22T00:06:25;16.90;99.90
50162;DHT22;36061;48.116;11.612;2023-07-22T00:08:53;16.80;99.90
50162;DHT22;36061;48.116;11.612;2023-07-22T00:11:20;16.80;99.90
50162;DHT22;36061;48.116;11.612;2023-07-22T00:13:49;16.80;99.90
50162;DHT22;36061;48.116;11.612;2023-07-22T00:16:17;16.80;99.90
50162;DHT22;36061;48.116;11.612;2023-07-22T00:18:45;16.80;99.90
50162;DHT22;36061;48.116;11.612;2023-07-22T00:21:13;16.80;99.90
50162;DHT22;36061;48.116;11.612;2023-07-22T00:23:41;16.80;99.90
50162;DHT22;36061;48.116;11.612;2023-07-22T00:26:08;16.80;99.90
50162;DHT22;36061;48.116;11.612;2023-07-22T00:28:36;16.70;99.90
50162;DHT22;36061;48.116;11.612;2023-07-22T00:31:05;16.70;99.90
50162;DHT22;36061;48.116;11.612;2023-07-22T00:33:32;16.70;99.90
50162;DHT22;36061;48.116;11.612;2023-07-22T00:35:59;16.60;99.90
50162;DHT22;36061;48.116;11.612;2023-07-22T00:38:26;16.60;99.90
50162;DHT22;36061;48.116;11.612;2023-07-22T00:40:54;16.60;99.90
50162;DHT22;36061;48.116;11.612;2023-07-22T00:43:22;16.60;99.90
50162;DHT22;36061;48.116;11.612;2023-07-22T00:45:51;16.60;99.90
50162;DHT22;36061;48.116;11.612;2023-07-22T00:48:20;16.60;99.90
50162;DHT22;36061;48.116;11.612;2023-07-22T00:50:48;16.60;99.90
50162;DHT22;36061;48.116;11.612;2023-07-22T00:53:15;16.50;99.90
50162;DHT22;36061;48.116;11.612;2023-07-22T00:55:45;16.50;99.90
50162;DHT22;36061;48.116;11.612;2023-07-22T00:58:12;16.40;99.90
50162;DHT22;36061;48.116;11.612;2023-07-22T01:00:39;16.40;99.90
50162;DHT22;36061;48.116;11.612;2023-07-22T01:03:07;16.40;99.90
50162;DHT22;36061;48.116;11.612;2023-07-22T01:05:37;16.40;99.90
50162;DHT22;36061;48.116;11.612;2023-07-22T01:08:05;16.40;99.90
50162;DHT22;36061;48.116;11.612;2023-07-22T01:10:33;16.30;99.90
50162;DHT22;36061;48.116;11.612;2023-07-22T01:13:00;16.20;99.90
50162;DHT22;36061;48.116;11.612;2023-07-22T01:15:28;16.20;99.90
50162;DHT22;36061;48.116;11.612;2023-07-22T01:17:56;16.10;99.90
50162;DHT22;36061;48.116;11.612;2023-07-22T01:20:27;16.10;99.90
50162;DHT22;36061;48.116;11.612;2023-07-22T01:22:57;16.20;99.90
50162;DHT22;36061;48.116;11.612;2023-07-22T01:25:24;16.20;99.90
50162;DHT22;36061;48.116;11.612;2023-07-22T01:27:52;16.10;99.90
50162;DHT22;36061;48.116;11.612;2023-07-22T01:30:19;16.20;99.90
50162;DHT22;36061;48.116;11.612;2023-07-22T01:32:47;16.10;99.90
50162;DHT22;36061;48.116;11.612;2023-07-22T01:35:17;16.10;99.90
50162;DHT22;36061;48.116;11.612;2023-07-22T01:37:44;16.10;99.90
50162;DHT22;36061;48.116;11.612;2023-07-22T01:40:13;16.10;99.90
50162;DHT22;36061;48.116;11.612;2023-07-22T01:42:41;16.10;99.90
50162;DHT22;36061;48.116;11.612;2023-07-22T01:45:09;16.10;99.90
50162;DHT22;36061;48.116;11.612;2023-07-22T01:47:38;16.10;99.90
50162;DHT22;36061;48.116;11.612;2023-07-22T01:50:06;16.10;99.90
50162;DHT22;36061;48.116;11.612;2023-07-22T01:52:34;16.10;99.90
50162;DHT22;36061;48.116;11.612;2023-07-22T01:55:01;16.00;99.90
50162;DHT22;36061;48.116;11.612;2023-07-22T01:57:33;16.00;99.90
50162;DHT22;36061;48.116;11.612;2023-07-22T02:00:00;16.10;99.90
50162;DHT22;36061;48.116;11.612;2023-07-22T02:02:27;16.10;99.90
50162;DHT22;36061;48.116;11.612;2023-07-22T02:04:55;16.10;99.90
50162;DHT22;36061;48.116;11.612;2023-07-22T02:07:22;16.10;99.90
50162;DHT22;36061;48.116;11.612;2023-07-22T02:09:52;16.10;99.90
50162;DHT22;36061;48.116;11.612;2023-07-22T02:12:19;16.20;99.90
50162;DHT22;36061;48.116;11.612;2023-07-22T02:14:48;16.20;99.90
50162;DHT22;36061;48.116;11.612;2023-07-22T02:17:15;16.20;99.90
50162;DHT22;36061;48.116;11.612;2023-07-22T02:19:43;16.20;99.90
50162;DHT22;36061;48.116;11.612;2023-07-22T02:22:10;16.10;99.90
50162;DHT22;36061;48.116;11.612;2023-07-22T02:24:38;16.10;99.90
50162;DHT22;36061;48.116;11.612;2023-07-22T02:27:06;16.10;99.90
50162;DHT22;36061;48.116;11.612;2023-07-22T02:29:34;16.10;99.90
50162;DHT22;36061;48.116;11.612;2023-07-22T02:32:03;16.10;99.90
50162;DHT22;36061;48.116;11.612;2023-07-22T02:34:31;16.10;99.90
50162;DHT22;36061;48.116;11.612;2023-07-22T02:36:58;16.10;99.90
50162;DHT22;36061;48.116;11.612;2023-07-22T02:39:25;16.10;99.90
50162;DHT22;36061;48.116;11.612;2023-07-22T02:41:52;16.10;99.90
50162;DHT22;36061;48.116;11.612;2023-07-22T02:44:20;16.10;99.90
50162;DHT22;36061;48.116;11.612;2023-07-22T02:46:47;16.10;99.90
50162;DHT22;36061;48.116;11.612;2023-07-22T02:49:16;16.10;99.90
50162;DHT22;36061;48.116;11.612;2023-07-22T02:51:43;16.00;99.90
50162;DHT22;36061;48.116;11.612;2023-07-22T02:54:10;16.00;99.90
50162;DHT22;36061;48.116;11.612;2023-07-22T02:56:38;16.10;99.90
50162;DHT22;36061;48.116;11.612;2023-07-22T02:59:05;16.00;99.90
50162;DHT22;36061;48.116;11.612;2023-07-22T03:01:32;16.00;99.90
50162;DHT22;36061;48.116;11.612;2023-07-22T03:04:00;16.00;99.90
50162;DHT22;36061;48.116;11.612;2023-07-22T03:06:29;15.90;99.90
50162;DHT22;36061;48.116;11.612;2023-07-22T03:08:57;15.90;99.90
50162;DHT22;36061;48.116;11.612;2023-07-22T03:11:24;15.90;99.90
50162;DHT22;36061;48.116;11.612;2023-07-22T03:13:53;15.90;99.90
50162;DHT22;36061;48.116;11.612;2023-07-22T03:16:20;15.90;99.90
50162;DHT22;36061;48.116;11.612;2023-07-22T03:18:47;15.90;99.90
50162;DHT22;36061;48.116;11.612;2023-07-22T03:21:15;15.90;99.90
50162;DHT22;36061;48.116;11.612;2023-07-22T03:23:43;15.90;99.90
50162;DHT22;36061;48.116;11.612;2023-07-22T03:26:11;15.90;99.90
50162;DHT22;36061;48.116;11.612;2023-07-22T03:28:38;15.90;99.90
50162;DHT22;36061;48.116;11.612;2023-07-22T03:31:07;15.90;99.90
50162;DHT22;36061;48.116;11.612;2023-07-22T03:33:34;15.90;99.90
50162;DHT22;36061;48.116;11.612;2023-07-22T03:36:02;15.90;99.90
50162;DHT22;36061;48.116;11.612;2023-07-22T03:38:29;15.90;99.90
50162;DHT22;36061;48.116;11.612;2023-07-22T03:40:58;15.80;99.90
50162;DHT22;36061;48.116;11.612;2023-07-22T03:43:25;15.80;99.90
50162;DHT22;36061;48.116;11.612;2023-07-22T03:45:53;15.70;99.90
50162;DHT22;36061;48.116;11.612;2023-07-22T03:48:20;15.70;99.90
50162;DHT22;36061;48.116;11.612;2023-07-22T03:50:47;15.70;99.90
50162;DHT22;36061;48.116;11.612;2023-07-22T03:53:14;15.80;99.90
50162;DHT22;36061;48.116;11.612;2023-07-22T03:55:41;15.80;99.90
50162;DHT22;36061;48.116;11.612;2023-07-22T03:58:10;15.80;99.90
50162;DHT22;36061;48.116;11.612;2023-07-22T04:00:38;15.90;99.90
50162;DHT22;36061;48.116;11.612;2023-07-22T04:03:05;15.90;99.90
50162;DHT22;36061;48.116;11.612;2023-07-22T04:05:32;15.90;99.90
50162;DHT22;36061;48.116;11.612;2023-07-22T04:07:59;15.80;99.90
50162;DHT22;36061;48.116;11.612;2023-07-22T04:10:27;15.80;99.90
50162;DHT22;36061;48.116;11.612;2023-07-22T04:12:54;15.90;99.90
50162;DHT22;36061;48.116;11.612;2023-07-22T04:15:23;15.90;99.90
50162;DHT22;36061;48.116;11.612;2023-07-22T04:17:50;15.90;99.90
50162;DHT22;36061;48.116;11.612;2023-07-22T04:20:18;15.90;99.90
50162;DHT22;36061;48.116;11.612;2023-07-22T04:22:45;15.90;99.90
50162;DHT22;36061;48.116;11.612;2023-07-22T04:25:12;15.90;99.90
50162;DHT22;36061;48.116;11.612;2023-07-22T04:27:40;15.90;99.90
50162;DHT22;36061;48.116;11.612;2023-07-22T04:30:08;15.90;99.90
50162;DHT22;36061;48.116;11.612;2023-07-22T04:32:36;16.00;99.90
50162;DHT22;36061;48.116;11.612;2023-07-22T04:35:05;16.00;99.90
50162;DHT22;36061;48.116;11.612;2023-07-22T04:37:32;16.10;99.90
50162;DHT22;36061;48.116;11.612;2023-07-22T04:39:59;16.10;99.90
50162;DHT22;36061;48.116;11.612;2023-07-22T04:42:28;16.20;99.90
50162;DHT22;36061;48.116;11.612;2023-07-22T04:44:55;16.30;99.90
50162;DHT22;36061;48.116;11.612;2023-07-22T04:47:22;16.40;99.90
50162;DHT22;36061;48.116;11.612;2023-07-22T04:49:51;16.60;99.90
50162;DHT22;36061;48.116;11.612;2023-07-22T04:52:18;16.70;99.90
50162;DHT22;36061;48.116;11.612;2023-07-22T04:54:45;16.80;99.90
50162;DHT22;36061;48.116;11.612;2023-07-22T04:57:13;16.90;99.90
50162;DHT22;36061;48.116;11.612;2023-07-22T04:59:42;17.10;99.90
50162;DHT22;36061;48.116;11.612;2023-07-22T05:02:10;17.20;99.90
50162;DHT22;36061;48.116;11.612;2023-07-22T05:04:37;17.30;99.90
50162;DHT22;36061;48.116;11.612;2023-07-22T05:07:06;17.30;99.90
50162;DHT22;36061;48.116;11.612;2023-07-22T05:09:33;17.30;99.90
50162;DHT22;36061;48.116;11.612;2023-07-22T05:12:00;17.30;99.90
50162;DHT22;36061;48.116;11.612;2023-07-22T05:14:27;17.30;99.90
50162;DHT22;36061;48.116;11.612;2023-07-22T05:16:54;17.30;99.90
50162;DHT22;36061;48.116;11.612;2023-07-22T05:19:22;17.30;99.90
50162;DHT22;36061;48.116;11.612;2023-07-22T05:21:49;17.20;99.90
50162;DHT22;36061;48.116;11.612;2023-07-22T05:24:17;17.20;99.90
50162;DHT22;36061;48.116;11.612;2023-07-22T05:26:46;17.20;99.90
50162;DHT22;36061;48.116;11.612;2023-07-22T05:29:14;17.20;99.90
50162;DHT22;36061;48.116;11.612;2023-07-22T05:31:42;17.20;99.90
50162;DHT22;36061;48.116;11.612;2023-07-22T05:34:10;17.20;99.90
50162;DHT22;36061;48.116;11.612;2023-07-22T05:36:38;17.20;99.90
50162;DHT22;36061;48.116;11.612;2023-07-22T05:39:05;17.20;99.90
50162;DHT22;36061;48.116;11.612;2023-07-22T05:41:34;17.30;99.90
50162;DHT22;36061;48.116;11.612;2023-07-22T05:44:02;17.30;99.90
50162;DHT22;36061;48.116;11.612;2023-07-22T05:46:29;17.40;99.90
50162;DHT22;36061;48.116;11.612;2023-07-22T05:48:56;17.40;99.90
50162;DHT22;36061;48.116;11.612;2023-07-22T05:51:24;17.40;99.90
50162;DHT22;36061;48.116;11.612;2023-07-22T05:53:51;17.40;99.90
50162;DHT22;36061;48.116;11.612;2023-07-22T05:56:18;17.30;99.90
50162;DHT22;36061;48.116;11.612;2023-07-22T05:58:47;17.20;99.90
50162;DHT22;36061;48.116;11.612;2023-07-22T06:01:14;17.20;99.90
50162;DHT22;36061;48.116;11.612;2023-07-22T06:03:42;17.20;99.90
50162;DHT22;36061;48.116;11.612;2023-07-22T06:06:10;17.30;99.90
50162;DHT22;36061;48.116;11.612;2023-07-22T06:08:37;17.30;99.90
50162;DHT22;36061;48.116;11.612;2023-07-22T06:11:04;17.40;99.90
50162;DHT22;36061;48.116;11.612;2023-07-22T06:13:31;17.50;99.90
50162;DHT22;36061;48.116;11.612;2023-07-22T06:16:00;17.70;99.90
50162;DHT22;36061;48.116;11.612;2023-07-22T06:18:28;17.80;99.90
50162;DHT22;36061;48.116;11.612;2023-07-22T06:20:55;17.90;99.90
50162;DHT22;36061;48.116;11.612;2023-07-22T06:23:23;18.00;99.90
50162;DHT22;36061;48.116;11.612;2023-07-22T06:25:50;18.10;99.90
50162;DHT22;36061;48.116;11.612;2023-07-22T06:28:17;18.10;99.90
50162;DHT22;36061;48.116;11.612;2023-07-22T06:30:45;18.20;99.90
50162;DHT22;36061;48.116;11.612;2023-07-22T06:33:13;18.20;99.90
50162;DHT22;36061;48.116;11.612;2023-07-22T06:35:42;18.40;99.90
50162;DHT22;36061;48.116;11.612;2023-07-22T06:38:09;18.60;99.90
50162;DHT22;36061;48.116;11.612;2023-07-22T06:40:36;18.70;99.90
50162;DHT22;36061;48.116;11.612;2023-07-22T06:43:03;18.70;99.90
50162;DHT22;36061;48.116;11.612;2023-07-22T06:45:31;18.60;99.90
50162;DHT22;36061;48.116;11.612;2023-07-22T06:47:59;18.60;99.90
50162;DHT22;36061;48.116;11.612;2023-07-22T06:50:27;18.60;99.90
50162;DHT22;36061;48.116;11.612;2023-07-22T06:52:55;18.60;99.90
50162;DHT22;36061;48.116;11.612;2023-07-22T06:55:22;18.60;99.90
50162;DHT22;36061;48.116;11.612;2023-07-22T06:57:49;18.60;99.90
50162;DHT22;36061;48.116;11.612;2023-07-22T07:00:16;18.50;99.90
50162;DHT22;36061;48.116;11.612;2023-07-22T07:02:43;18.60;99.90
50162;DHT22;36061;48.116;11.612;2023-07-22T07:05:11;18.70;99.90
50162;DHT22;36061;48.116;11.612;2023-07-22T07:07:40;18.70;99.90
50162;DHT22;36061;48.116;11.612;2023-07-22T07:10:08;18.70;99.90
50162;DHT22;36061;48.116;11.612;2023-07-22T07:12:35;18.80;99.90
50162;DHT22;36061;48.116;11.612;2023-07-22T07:15:02;18.80;99.90
50162;DHT22;36061;48.116;11.612;2023-07-22T07:17:31;18.80;99.90
50162;DHT22;36061;48.116;11.612;2023-07-22T07:19:58;18.80;99.90
50162;DHT22;36061;48.116;11.612;2023-07-22T07:22:25;18.80;99.90
50162;DHT22;36061;48.116;11.612;2023-07-22T07:24:54;18.80;99.90
50162;DHT22;36061;48.116;11.612;2023-07-22T07:27:21;18.80;99.90
50162;DHT22;36061;48.116;11.612;2023-07-22T07:29:48;18.80;99.90
50162;DHT22;36061;48.116;11.612;2023-07-22T07:32:16;18.80;99.90
50162;DHT22;36061;48.116;11.612;2023-07-22T07:34:43;19.00;99.90
50162;DHT22;36061;48.116;11.612;2023-07-22T07:37:10;19.10;99.90
50162;DHT22;36061;48.116;11.612;2023-07-22T07:39:37;19.20;99.90
50162;DHT22;36061;48.116;11.612;2023-07-22T07:42:06;19.40;99.90
50162;DHT22;36061;48.116;11.612;2023-07-22T07:44:33;19.50;99.90
50162;DHT22;36061;48.116;11.612;2023-07-22T07:47:01;19.70;99.90
50162;DHT22;36061;48.116;11.612;2023-07-22T07:49:28;19.80;99.90
50162;DHT22;36061;48.116;11.612;2023-07-22T07:51:55;19.90;99.90
50162;DHT22;36061;48.116;11.612;2023-07-22T07:54:22;19.90;99.90
50162;DHT22;36061;48.116;11.612;2023-07-22T07:56:49;19.90;99.90
50162;DHT22;36061;48.116;11.612;2023-07-22T07:59:18;19.80;99.90
50162;DHT22;36061;48.116;11.612;2023-07-22T08:01:45;19.80;99.90
50162;DHT22;36061;48.116;11.612;2023-07-22T08:04:13;19.90;99.90
50162;DHT22;36061;48.116;11.612;2023-07-22T08:06:40;19.90;99.90
50162;DHT22;36061;48.116;11.612;2023-07-22T08:09:08;19.90;99.90
50162;DHT22;36061;48.116;11.612;2023-07-22T08:11:36;19.90;99.90
50162;DHT22;36061;48.116;11.612;2023-07-22T08:14:04;19.90;99.90
50162;DHT22;36061;48.116;11.612;2023-07-22T08:16:35;20.00;99.90
50162;DHT22;36061;48.116;11.612;2023-07-22T08:19:02;20.00;99.90
50162;DHT22;36061;48.116;11.612;2023-07-22T08:21:30;20.10;99.90
50162;DHT22;36061;48.116;11.612;2023-07-22T08:23:57;20.20;99.90
50162;DHT22;36061;48.116;11.612;2023-07-22T08:26:24;20.20;99.90
50162;DHT22;36061;48.116;11.612;2023-07-22T08:28:51;20.30;99.90
50162;DHT22;36061;48.116;11.612;2023-07-22T08:31:19;20.30;99.90
50162;DHT22;36061;48.116;11.612;2023-07-22T08:33:47;20.40;99.90
50162;DHT22;36061;48.116;11.612;2023-07-22T08:36:14;20.50;99.90
50162;DHT22;36061;48.116;11.612;2023-07-22T08:38:42;20.60;99.90
50162;DHT22;36061;48.116;11.612;2023-07-22T08:41:14;20.70;99.90
50162;DHT22;36061;48.116;11.612;2023-07-22T08:43:41;20.70;99.90
50162;DHT22;36061;48.116;11.612;2023-07-22T08:46:12;20.80;99.90
50162;DHT22;36061;48.116;11.612;2023-07-22T08:48:42;20.80;99.90
50162;DHT22;36061;48.116;11.612;2023-07-22T08:51:15;20.90;99.90
50162;DHT22;36061;48.116;11.612;2023-07-22T08:53:43;20.90;99.90
50162;DHT22;36061;48.116;11.612;2023-07-22T08:56:11;20.90;99.90
50162;DHT22;36061;48.116;11.612;2023-07-22T08:58:39;20.90;99.90
50162;DHT22;36061;48.116;11.612;2023-07-22T09:01:09;21.00;99.90
50162;DHT22;36061;48.116;11.612;2023-07-22T09:03:39;21.00;99.90
50162;DHT22;36061;48.116;11.612;2023-07-22T09:06:07;21.10;99.90
50162;DHT22;36061;48.116;11.612;2023-07-22T09:08:36;21.10;99.90
50162;DHT22;36061;48.116;11.612;2023-07-22T09:11:04;21.20;99.90
50162;DHT22;36061;48.116;11.612;2023-07-22T09:13:31;21.20;99.90
50162;DHT22;36061;48.116;11.612;2023-07-22T09:16:00;21.20;98.80
50162;DHT22;36061;48.116;11.612;2023-07-22T09:18:28;21.20;99.60
50162;DHT22;36061;48.116;11.612;2023-07-22T09:20:55;21.30;99.80
50162;DHT22;36061;48.116;11.612;2023-07-22T09:23:32;21.40;99.90
50162;DHT22;36061;48.116;11.612;2023-07-22T09:26:10;21.50;99.90
50162;DHT22;36061;48.116;11.612;2023-07-22T09:28:53;21.60;99.90
50162;DHT22;36061;48.116;11.612;2023-07-22T09:31:22;21.80;99.90
50162;DHT22;36061;48.116;11.612;2023-07-22T09:33:49;21.90;98.70
50162;DHT22;36061;48.116;11.612;2023-07-22T09:36:17;22.00;99.00
50162;DHT22;36061;48.116;11.612;2023-07-22T09:38:44;22.10;99.20
50162;DHT22;36061;48.116;11.612;2023-07-22T09:41:13;22.20;98.50
50162;DHT22;36061;48.116;11.612;2023-07-22T09:43:47;22.30;96.60
50162;DHT22;36061;48.116;11.612;2023-07-22T09:46:14;22.20;97.00
50162;DHT22;36061;48.116;11.612;2023-07-22T09:48:43;22.30;96.70
50162;DHT22;36061;48.116;11.612;2023-07-22T09:51:15;22.30;95.80
50162;DHT22;36061;48.116;11.612;2023-07-22T09:53:46;22.30;95.90
50162;DHT22;36061;48.116;11.612;2023-07-22T09:56:14;22.30;95.50
50162;DHT22;36061;48.116;11.612;2023-07-22T09:58:43;22.30;95.20
50162;DHT22;36061;48.116;11.612;2023-07-22T10:01:14;22.30;94.70
50162;DHT22;36061;48.116;11.612;2023-07-22T10:03:45;22.20;96.00
50162;DHT22;36061;48.116;11.612;2023-07-22T10:06:14;22.30;95.20
50162;DHT22;36061;48.116;11.612;2023-07-22T10:08:44;22.30;95.80
50162;DHT22;36061;48.116;11.612;2023-07-22T10:11:12;22.30;95.20
50162;DHT22;36061;48.116;11.612;2023-07-22T10:13:41;22.30;94.80
50162;DHT22;36061;48.116;11.612;2023-07-22T10:16:09;22.30;94.90
50162;DHT22;36061;48.116;11.612;2023-07-22T10:18:36;22.20;94.30
50162;DHT22;36061;48.116;11.612;2023-07-22T10:21:07;22.10;94.30
50162;DHT22;36061;48.116;11.612;2023-07-22T10:23:36;22.10;94.60
50162;DHT22;36061;48.116;11.612;2023-07-22T10:26:05;22.10;94.10
50162;DHT22;36061;48.116;11.612;2023-07-22T10:28:33;21.90;94.20
50162;DHT22;36061;48.116;11.612;2023-07-22T10:31:01;21.90;94.00
50162;DHT22;36061;48.116;11.612;2023-07-22T10:33:29;21.70;94.50
50162;DHT22;36061;48.116;11.612;2023-07-22T10:36:04;21.60;94.40
50162;DHT22;36061;48.116;11.612;2023-07-22T10:38:32;21.70;94.20
50162;DHT22;36061;48.116;11.612;2023-07-22T10:40:59;21.60;94.30
50162;DHT22;36061;48.116;11.612;2023-07-22T10:43:29;21.50;94.80
50162;DHT22;36061;48.116;11.612;2023-07-22T10:45:57;21.50;94.60
50162;DHT22;36061;48.116;11.612;2023-07-22T10:48:28;21.50;93.00
50162;DHT22;36061;48.116;11.612;2023-07-22T10:51:08;21.50;93.20
50162;DHT22;36061;48.116;11.612;2023-07-22T10:53:40;21.60;94.20
50162;DHT22;36061;48.116;11.612;2023-07-22T10:56:14;21.80;93.60
50162;DHT22;36061;48.116;11.612;2023-07-22T10:58:59;21.90;92.60
50162;DHT22;36061;48.116;11.612;2023-07-22T11:01:34;21.90;93.00
50162;DHT22;36061;48.116;11.612;2023-07-22T11:04:22;22.00;92.60
50162;DHT22;36061;48.116;11.612;2023-07-22T11:06:58;22.10;92.50
50162;DHT22;36061;48.116;11.612;2023-07-22T11:09:36;22.10;91.50
50162;DHT22;36061;48.116;11.612;2023-07-22T11:12:05;22.20;92.10
50162;DHT22;36061;48.116;11.612;2023-07-22T11:14:33;22.20;91.20
50162;DHT22;36061;48.116;11.612;2023-07-22T11:17:02;22.20;91.50
50162;DHT22;36061;48.116;11.612;2023-07-22T11:19:32;22.30;91.30
50162;DHT22;36061;48.116;11.612;2023-07-22T11:22:00;22.40;90.90
50162;DHT22;36061;48.116;11.612;2023-07-22T11:24:28;22.40;91.10
50162;DHT22;36061;48.116;11.612;2023-07-22T11:26:55;22.50;90.50
50162;DHT22;36061;48.116;11.612;2023-07-22T11:29:23;22.60;90.60
50162;DHT22;36061;48.116;11.612;2023-07-22T11:31:51;22.70;90.50
50162;DHT22;36061;48.116;11.612;2023-07-22T11:34:19;22.70;90.10
50162;DHT22;36061;48.116;11.612;2023-07-22T11:36:48;22.70;89.40
50162;DHT22;36061;48.116;11.612;2023-07-22T11:39:17;22.80;90.40
50162;DHT22;36061;48.116;11.612;2023-07-22T11:41:45;22.90;88.60
50162;DHT22;36061;48.116;11.612;2023-07-22T11:44:14;23.00;89.00
50162;DHT22;36061;48.116;11.612;2023-07-22T11:46:52;23.20;88.70
50162;DHT22;36061;48.116;11.612;2023-07-22T11:49:24;23.30;89.20
50162;DHT22;36061;48.116;11.612;2023-07-22T11:51:54;23.40;89.10
50162;DHT22;36061;48.116;11.612;2023-07-22T11:54:22;23.50;89.20
50162;DHT22;36061;48.116;11.612;2023-07-22T11:56:50;23.50;86.40
50162;DHT22;36061;48.116;11.612;2023-07-22T11:59:17;23.50;86.90
50162;DHT22;36061;48.116;11.612;2023-07-22T12:01:45;23.40;88.00
50162;DHT22;36061;48.116;11.612;2023-07-22T12:04:12;23.30;87.30
50162;DHT22;36061;48.116;11.612;2023-07-22T12:06:40;23.30;87.10
50162;DHT22;36061;48.116;11.612;2023-07-22T12:09:09;23.30;87.40
50162;DHT22;36061;48.116;11.612;2023-07-22T12:11:36;23.30;86.50
50162;DHT22;36061;48.116;11.612;2023-07-22T12:14:08;23.30;86.30
50162;DHT22;36061;48.116;11.612;2023-07-22T12:16:37;23.30;85.60
50162;DHT22;36061;48.116;11.612;2023-07-22T12:19:05;23.30;86.30
50162;DHT22;36061;48.116;11.612;2023-07-22T12:21:33;23.30;84.80
50162;DHT22;36061;48.116;11.612;2023-07-22T12:24:00;23.30;85.40
50162;DHT22;36061;48.116;11.612;2023-07-22T12:26:29;23.30;84.30
50162;DHT22;36061;48.116;11.612;2023-07-22T12:28:56;23.30;84.90
50162;DHT22;36061;48.116;11.612;2023-07-22T12:31:25;23.30;85.90
50162;DHT22;36061;48.116;11.612;2023-07-22T12:33:52;23.30;86.40
50162;DHT22;36061;48.116;11.612;2023-07-22T12:36:20;23.40;85.10
50162;DHT22;36061;48.116;11.612;2023-07-22T12:38:47;23.50;85.60
50162;DHT22;36061;48.116;11.612;2023-07-22T12:41:15;23.50;85.00
50162;DHT22;36061;48.116;11.612;2023-07-22T12:43:43;23.40;86.10
50162;DHT22;36061;48.116;11.612;2023-07-22T12:46:10;23.50;86.10
50162;DHT22;36061;48.116;11.612;2023-07-22T12:48:38;23.60;86.50
50162;DHT22;36061;48.116;11.612;2023-07-22T12:51:05;23.70;84.90
50162;DHT22;36061;48.116;11.612;2023-07-22T12:53:32;23.80;83.30
50162;DHT22;36061;48.116;11.612;2023-07-22T12:55:59;23.80;83.80
50162;DHT22;36061;48.116;11.612;2023-07-22T12:58:29;23.80;84.10
50162;DHT22;36061;48.116;11.612;2023-07-22T13:00:58;23.80;83.30
50162;DHT22;36061;48.116;11.612;2023-07-22T13:03:25;23.80;82.70
50162;DHT22;36061;48.116;11.612;2023-07-22T13:05:52;23.70;81.90
50162;DHT22;36061;48.116;11.612;2023-07-22T13:08:19;23.70;81.90
50162;DHT22;36061;48.116;11.612;2023-07-22T13:10:47;23.70;82.20
50162;DHT22;36061;48.116;11.612;2023-07-22T13:13:14;23.60;81.70
50162;DHT22;36061;48.116;11.612;2023-07-22T13:15:41;23.60;83.60
50162;DHT22;36061;48.116;11.612;2023-07-22T13:18:10;23.60;82.90
50162;DHT22;36061;48.116;11.612;2023-07-22T13:20:39;23.60;81.90
50162;DHT22;36061;48.116;11.612;2023-07-22T13:23:07;23.60;82.20
50162;DHT22;36061;48.116;11.612;2023-07-22T13:25:34;23.50;82.20
50162;DHT22;36061;48.116;11.612;2023-07-22T13:28:01;23.50;83.00
50162;DHT22;36061;48.116;11.612;2023-07-22T13:30:28;23.40;83.60
50162;DHT22;36061;48.116;11.612;2023-07-22T13:32:56;23.50;84.20
50162;DHT22;36061;48.116;11.612;2023-07-22T13:35:24;23.50;83.90
50162;DHT22;36061;48.116;11.612;2023-07-22T13:37:51;23.70;83.20
50162;DHT22;36061;48.116;11.612;2023-07-22T13:40:19;23.70;82.60
50162;DHT22;36061;48.116;11.612;2023-07-22T13:42:46;23.80;83.70
50162;DHT22;36061;48.116;11.612;2023-07-22T13:45:14;23.80;83.70
50162;DHT22;36061;48.116;11.612;2023-07-22T13:47:41;23.90;81.60
50162;DHT22;36061;48.116;11.612;2023-07-22T13:50:09;23.90;81.00
50162;DHT22;36061;48.116;11.612;2023-07-22T13:52:38;23.90;81.40
50162;DHT22;36061;48.116;11.612;2023-07-22T13:55:07;23.90;80.40
50162;DHT22;36061;48.116;11.612;2023-07-22T13:57:35;23.90;81.00
50162;DHT22;36061;48.116;11.612;2023-07-22T14:00:02;24.00;80.20
50162;DHT22;36061;48.116;11.612;2023-07-22T14:02:38;24.00;81.20
50162;DHT22;36061;48.116;11.612;2023-07-22T14:05:06;24.10;80.20
50162;DHT22;36061;48.116;11.612;2023-07-22T14:07:35;24.10;79.30
50162;DHT22;36061;48.116;11.612;2023-07-22T14:10:05;24.00;79.30
50162;DHT22;36061;48.116;11.612;2023-07-22T14:12:32;23.90;78.80
50162;DHT22;36061;48.116;11.612;2023-07-22T14:14:59;24.00;79.50
50162;DHT22;36061;48.116;11.612;2023-07-22T14:17:26;24.00;77.40
50162;DHT22;36061;48.116;11.612;2023-07-22T14:19:54;23.90;77.20
50162;DHT22;36061;48.116;11.612;2023-07-22T14:22:21;23.90;77.90
50162;DHT22;36061;48.116;11.612;2023-07-22T14:24:48;23.90;76.90
50162;DHT22;36061;48.116;11.612;2023-07-22T14:27:17;24.00;76.50
50162;DHT22;36061;48.116;11.612;2023-07-22T14:29:44;24.00;75.20
50162;DHT22;36061;48.116;11.612;2023-07-22T14:32:11;24.10;76.70
50162;DHT22;36061;48.116;11.612;2023-07-22T14:34:38;24.20;77.10
50162;DHT22;36061;48.116;11.612;2023-07-22T14:37:05;24.20;75.90
50162;DHT22;36061;48.116;11.612;2023-07-22T14:39:33;24.20;73.80
50162;DHT22;36061;48.116;11.612;2023-07-22T14:42:00;24.20;73.20
50162;DHT22;36061;48.116;11.612;2023-07-22T14:44:29;24.10;73.70
50162;DHT22;36061;48.116;11.612;2023-07-22T14:46:56;24.10;74.50
50162;DHT22;36061;48.116;11.612;2023-07-22T14:49:23;24.10;73.50
50162;DHT22;36061;48.116;11.612;2023-07-22T14:51:50;24.10;72.90
50162;DHT22;36061;48.116;11.612;2023-07-22T14:54:17;24.10;73.00
50162;DHT22;36061;48.116;11.612;2023-07-22T14:56:45;24.10;73.40
50162;DHT22;36061;48.116;11.612;2023-07-22T14:59:14;24.10;72.80
50162;DHT22;36061;48.116;11.612;2023-07-22T15:01:43;24.10;73.30
50162;DHT22;36061;48.116;11.612;2023-07-22T15:04:10;24.10;72.60
50162;DHT22;36061;48.116;11.612;2023-07-22T15:06:37;24.10;72.60
50162;DHT22;36061;48.116;11.612;2023-07-22T15:09:05;24.10;72.30
50162;DHT22;36061;48.116;11.612;2023-07-22T15:11:34;24.20;71.70
50162;DHT22;36061;48.116;11.612;2023-07-22T15:14:02;24.30;72.50
50162;DHT22;36061;48.116;11.612;2023-07-22T15:16:30;24.30;71.90
50162;DHT22;36061;48.116;11.612;2023-07-22T15:18:59;24.40;72.70
50162;DHT22;36061;48.116;11.612;2023-07-22T15:21:26;24.50;71.40